NCAR-RAP Real-Time Weather Data

Output produced by METARs form (12 May 2021  12:08 UTC)
found at http://weather.rap.ucar.edu/surface/
 
KSBY 121154Z 35012G16KT 10SM CLR 11/M02 A3024 RMK AO2 SLP243 T01111017 10150 20100 53009
KSBY 121054Z 34010G16KT 10SM CLR 10/M02 A3024 RMK AO2 SLP241 T01001022
KSBY 120954Z AUTO 36010KT 10SM FEW100 11/M04 A3021 RMK AO2 SLP233 T01111044
KSBY 120854Z AUTO 35010KT 10SM OVC080 12/M03 A3022 RMK AO2 SLP234 T01221033 53018
KSBY 120754Z AUTO 35008KT 10SM OVC080 13/M01 A3018 RMK AO2 SLP223 T01331011
KSBY 120654Z AUTO 34010G17KT 10SM OVC075 14/M02 A3017 RMK AO2 SLP220 T01391022
KSBY 120554Z AUTO 34009KT 10SM OVC075 15/02 A3016 RMK AO2 SLP215 T01500017 10172 20144 51014
KSBY 120454Z AUTO 32008KT 10SM OVC070 16/04 A3016 RMK AO2 SLP215 T01560044 402110067
KSBY 120354Z AUTO 31004KT 10SM OVC065 16/07 A3015 RMK AO2 SLP212 T01560067
KSBY 120254Z AUTO 00000KT 10SM OVC065 16/07 A3012 RMK AO2 SLP201 T01560072 51019
KSBY 120154Z 19003KT 10SM OVC070 15/07 A3010 RMK AO2 SLP196 T01500072
KSBY 120054Z 26003KT 10SM BKN075 OVC100 16/07 A3009 RMK AO2 SLP190 T01560067
KSBY 112354Z 20003KT 10SM OVC070 17/07 A3006 RMK AO2 SLP182 T01670072 10211 20167 55000
KSBY 112254Z 25005KT 10SM OVC090 18/04 A3006 RMK AO2 SLP182 T01780044
KSBY 112154Z 25008KT 10SM FEW100 19/04 A3006 RMK AO2 SLP182 T01890039
KSBY 112054Z 25010KT 10SM CLR 20/04 A3006 RMK AO2 SLP182 T02000044 56008